Time;durP1;ratioP1;P1;durP2;ratioP2;P2;SDS_P1;SDS_P2;PMS_P1;PMS_P2;Temp;Humidity;BMP_temperature;BMP_pressure;BME280_temperature;BME280_humidity;BME280_pressure;Samples;Min_cycle;Max_cycle;Signal;HPM_P1;HPM_P2
2023/12/22 00:01:17;;;;;;;;;;;13.20;99.90;;;;;;5114366;28;20008;-76
2023/12/22 00:03:47;;;;;;;;;;;13.30;99.90;;;;;;5114387;28;19995;-76
2023/12/22 00:06:13;;;;;;;;;;;13.30;99.90;;;;;;5114543;28;19951;-76
2023/12/22 00:08:39;;;;;;;;;;;13.30;99.90;;;;;;5095523;28;19911;-77
2023/12/22 00:11:05;;;;;;;;;;;13.30;99.90;;;;;;5095576;28;20220;-77
2023/12/22 00:13:33;;;;;;;;;;;13.40;99.90;;;;;;5114450;28;20391;-77
2023/12/22 00:15:59;;;;;;;;;;;13.40;99.90;;;;;;5114430;28;19907;-77
2023/12/22 00:18:24;;;;;;;;;;;13.30;99.90;;;;;;5114213;28;19916;-77
2023/12/22 00:20:51;;;;;;;;;;;13.30;99.90;;;;;;5114103;28;19961;-73
2023/12/22 00:23:17;;;;;;;;;;;13.40;99.90;;;;;;5114055;28;20304;-77
2023/12/22 00:25:43;;;;;;;;;;;13.40;99.90;;;;;;5114325;28;20413;-77
2023/12/22 00:28:09;;;;;;;;;;;13.40;99.90;;;;;;5095389;28;20444;-77
2023/12/22 00:30:34;;;;;;;;;;;13.40;99.90;;;;;;5095584;28;19927;-76
2023/12/22 00:33:00;;;;;;;;;;;13.40;99.90;;;;;;5113763;28;19995;-76
2023/12/22 00:35:26;;;;;;;;;;;13.40;99.90;;;;;;5112889;28;19915;-77
2023/12/22 00:37:52;;;;;;;;;;;13.30;99.90;;;;;;5095094;28;19927;-77
2023/12/22 00:40:18;;;;;;;;;;;13.40;99.90;;;;;;5114015;28;19972;-77
2023/12/22 00:42:44;;;;;;;;;;;13.40;99.90;;;;;;5113671;28;19947;-76
2023/12/22 00:45:10;;;;;;;;;;;13.40;99.90;;;;;;5113901;28;19971;-77
2023/12/22 00:47:36;;;;;;;;;;;13.40;99.90;;;;;;5113671;28;19923;-77
2023/12/22 00:50:04;;;;;;;;;;;13.40;99.90;;;;;;5113588;28;19908;-77
2023/12/22 00:52:30;;;;;;;;;;;13.50;99.90;;;;;;5113372;28;20232;-76
2023/12/22 00:54:56;;;;;;;;;;;13.30;99.90;;;;;;5113474;28;20271;-77
2023/12/22 00:57:22;;;;;;;;;;;13.30;99.90;;;;;;5113672;28;19916;-76
2023/12/22 00:59:48;;;;;;;;;;;13.30;99.90;;;;;;5113335;28;19931;-76
2023/12/22 01:02:14;;;;;;;;;;;13.20;99.90;;;;;;5113838;28;19980;-77
2023/12/22 01:04:40;;;;;;;;;;;13.20;99.90;;;;;;5113381;28;19907;-77
2023/12/22 01:07:09;;;;;;;;;;;13.20;99.90;;;;;;5113243;28;19923;-77
2023/12/22 01:09:36;;;;;;;;;;;13.20;99.90;;;;;;5112942;28;19911;-76
2023/12/22 01:12:03;;;;;;;;;;;13.20;99.90;;;;;;5113036;28;19908;-77
2023/12/22 01:14:29;;;;;;;;;;;13.20;99.90;;;;;;5113210;28;19912;-77
2023/12/22 01:16:55;;;;;;;;;;;13.20;99.90;;;;;;5113075;28;19908;-77
2023/12/22 01:19:21;;;;;;;;;;;13.20;99.90;;;;;;5113079;28;19930;-76
2023/12/22 01:21:47;;;;;;;;;;;13.20;99.90;;;;;;5112812;28;20319;-77
2023/12/22 01:24:13;;;;;;;;;;;13.20;99.90;;;;;;5112850;28;19923;-77
2023/12/22 01:26:39;;;;;;;;;;;13.20;99.90;;;;;;5112894;28;20314;-77
2023/12/22 01:29:04;;;;;;;;;;;13.20;99.90;;;;;;5114141;28;19912;-76
2023/12/22 01:31:30;;;;;;;;;;;13.20;99.90;;;;;;5113715;28;20315;-76
2023/12/22 01:33:56;;;;;;;;;;;13.20;99.90;;;;;;5113015;28;19988;-77
2023/12/22 01:36:22;;;;;;;;;;;13.30;99.90;;;;;;5112860;28;19908;-77
2023/12/22 01:38:47;;;;;;;;;;;13.30;99.90;;;;;;5094126;28;20010;-77
2023/12/22 01:41:14;;;;;;;;;;;13.30;99.90;;;;;;5112509;28;19945;-76
2023/12/22 01:43:39;;;;;;;;;;;13.30;99.90;;;;;;5112557;28;20280;-77
2023/12/22 01:46:06;;;;;;;;;;;13.30;99.90;;;;;;5112207;28;19994;-76
2023/12/22 01:48:32;;;;;;;;;;;13.30;99.90;;;;;;5112216;28;19908;-77
2023/12/22 01:50:59;;;;;;;;;;;13.30;99.90;;;;;;5112187;28;19914;-77
2023/12/22 01:53:26;;;;;;;;;;;13.30;99.90;;;;;;5112144;28;19918;-77
2023/12/22 01:55:53;;;;;;;;;;;13.30;99.90;;;;;;5112464;28;20331;-76
2023/12/22 01:58:19;;;;;;;;;;;13.20;99.90;;;;;;5112034;28;19908;-76
2023/12/22 02:00:45;;;;;;;;;;;13.30;99.90;;;;;;5111928;28;19920;-77
2023/12/22 02:03:12;;;;;;;;;;;13.30;99.90;;;;;;5112150;28;19980;-75
2023/12/22 02:05:40;;;;;;;;;;;13.20;99.90;;;;;;5112078;28;20006;-77
2023/12/22 02:08:06;;;;;;;;;;;13.20;99.90;;;;;;5112039;28;19939;-77
2023/12/22 02:10:32;;;;;;;;;;;13.30;99.90;;;;;;5111844;28;20299;-77
2023/12/22 02:12:58;;;;;;;;;;;13.30;99.90;;;;;;5111863;28;19908;-76
2023/12/22 02:15:23;;;;;;;;;;;13.30;99.90;;;;;;5112231;28;19915;-76
2023/12/22 02:17:58;;;;;;;;;;;13.20;99.90;;;;;;5111760;28;20305;-77
2023/12/22 02:20:25;;;;;;;;;;;13.20;99.90;;;;;;5111656;28;19923;-76
2023/12/22 02:22:51;;;;;;;;;;;13.20;99.90;;;;;;5093214;28;19908;-77
2023/12/22 02:25:17;;;;;;;;;;;13.20;99.90;;;;;;5093205;28;19923;-77
2023/12/22 02:27:50;;;;;;;;;;;13.10;99.90;;;;;;5093066;28;19911;-75
2023/12/22 02:30:25;;;;;;;;;;;13.10;99.90;;;;;;5111916;28;19999;-77
2023/12/22 02:32:52;;;;;;;;;;;13.10;99.90;;;;;;5111578;28;19914;-77
2023/12/22 02:35:20;;;;;;;;;;;13.10;99.90;;;;;;5111570;28;19976;-76
2023/12/22 02:37:46;;;;;;;;;;;13.10;99.90;;;;;;5111229;28;19908;-75
2023/12/22 02:40:12;;;;;;;;;;;13.10;99.90;;;;;;5111354;28;19972;-77
2023/12/22 02:42:38;;;;;;;;;;;13.10;99.90;;;;;;5111355;28;19907;-77
2023/12/22 02:45:05;;;;;;;;;;;13.20;99.90;;;;;;5111352;28;19936;-75
2023/12/22 02:47:33;;;;;;;;;;;13.20;99.90;;;;;;5111122;28;20333;-77
2023/12/22 02:49:59;;;;;;;;;;;13.20;99.90;;;;;;5111241;28;19914;-77
2023/12/22 02:52:25;;;;;;;;;;;13.20;99.90;;;;;;5111306;28;20006;-76
2023/12/22 02:54:51;;;;;;;;;;;13.30;99.90;;;;;;5092288;28;20358;-77
2023/12/22 02:57:17;;;;;;;;;;;13.40;99.90;;;;;;5110629;28;19929;-77
2023/12/22 02:59:42;;;;;;;;;;;13.40;99.90;;;;;;5110787;28;19996;-77
2023/12/22 03:02:08;;;;;;;;;;;13.40;99.90;;;;;;5110947;28;19922;-77
2023/12/22 03:04:34;;;;;;;;;;;13.50;99.90;;;;;;5110943;28;19955;-76
2023/12/22 03:07:00;;;;;;;;;;;13.50;99.90;;;;;;5110929;28;19916;-77
2023/12/22 03:09:26;;;;;;;;;;;13.50;99.90;;;;;;5111037;28;19955;-77
2023/12/22 03:11:54;;;;;;;;;;;13.60;99.90;;;;;;5110836;28;19968;-76
2023/12/22 03:14:20;;;;;;;;;;;13.60;99.90;;;;;;5110569;28;20003;-76
2023/12/22 03:16:46;;;;;;;;;;;13.60;99.90;;;;;;5110792;28;20044;-77
2023/12/22 03:19:11;;;;;;;;;;;13.60;99.90;;;;;;5110815;28;19908;-78
2023/12/22 03:21:37;;;;;;;;;;;13.60;99.90;;;;;;5110666;28;19930;-78
2023/12/22 03:24:03;;;;;;;;;;;13.60;99.90;;;;;;5110499;28;19994;-77
2023/12/22 03:26:29;;;;;;;;;;;13.60;99.90;;;;;;5110471;28;19916;-73
2023/12/22 03:28:55;;;;;;;;;;;13.60;99.90;;;;;;5110511;28;19923;-77
2023/12/22 03:31:20;;;;;;;;;;;13.60;99.90;;;;;;5110794;28;20412;-77
2023/12/22 03:33:46;;;;;;;;;;;13.70;99.90;;;;;;5110875;28;20004;-77
2023/12/22 03:36:12;;;;;;;;;;;13.70;99.90;;;;;;5112067;28;20336;-78
2023/12/22 03:38:38;;;;;;;;;;;13.80;99.90;;;;;;5092473;28;19940;-77
2023/12/22 03:41:04;;;;;;;;;;;13.70;99.90;;;;;;5110627;28;19995;-76
2023/12/22 03:43:31;;;;;;;;;;;13.70;99.90;;;;;;5110726;28;20384;-77
2023/12/22 03:45:57;;;;;;;;;;;13.60;99.90;;;;;;5110485;28;19911;-76
2023/12/22 03:48:22;;;;;;;;;;;13.70;99.90;;;;;;5092042;28;19980;-77
2023/12/22 03:50:48;;;;;;;;;;;13.70;99.90;;;;;;5110337;28;19908;-76
2023/12/22 03:53:14;;;;;;;;;;;13.80;99.90;;;;;;5110280;28;19934;-76
2023/12/22 03:55:40;;;;;;;;;;;13.80;99.90;;;;;;5091800;28;19960;-77
2023/12/22 03:58:07;;;;;;;;;;;13.70;99.90;;;;;;5076742;28;20236;-76
2023/12/22 04:00:33;;;;;;;;;;;13.80;99.90;;;;;;5093448;28;19919;-77
2023/12/22 04:02:59;;;;;;;;;;;13.80;99.90;;;;;;5110990;28;19931;-75
2023/12/22 04:05:25;;;;;;;;;;;13.80;99.90;;;;;;5111153;28;20248;-75
2023/12/22 04:07:50;;;;;;;;;;;13.70;99.90;;;;;;5092978;28;20359;-76
2023/12/22 04:10:17;;;;;;;;;;;13.70;99.90;;;;;;5115501;28;19907;-75
2023/12/22 04:12:43;;;;;;;;;;;13.70;99.90;;;;;;5115278;28;19907;-76
2023/12/22 04:15:09;;;;;;;;;;;13.80;99.90;;;;;;5115355;28;19915;-76
2023/12/22 04:17:35;;;;;;;;;;;13.70;99.90;;;;;;5115508;28;19994;-74
2023/12/22 04:20:01;;;;;;;;;;;13.70;99.90;;;;;;5114758;28;19919;-77
2023/12/22 04:22:27;;;;;;;;;;;13.80;99.90;;;;;;5114444;28;19916;-77
2023/12/22 04:24:52;;;;;;;;;;;13.80;99.90;;;;;;5114803;28;19914;-77
2023/12/22 04:27:18;;;;;;;;;;;13.80;99.90;;;;;;5116030;28;20424;-77
2023/12/22 04:29:44;;;;;;;;;;;13.90;99.90;;;;;;5115422;28;19908;-77
2023/12/22 04:32:10;;;;;;;;;;;13.90;99.90;;;;;;5116055;28;20336;-77
2023/12/22 04:34:35;;;;;;;;;;;13.90;99.90;;;;;;5095167;28;19908;-77
2023/12/22 04:37:01;;;;;;;;;;;13.90;99.90;;;;;;5095477;28;19961;-77
2023/12/22 04:39:27;;;;;;;;;;;14.00;99.90;;;;;;5094925;28;20256;-77
2023/12/22 04:41:53;;;;;;;;;;;14.00;99.90;;;;;;5095260;28;20217;-76
2023/12/22 04:44:19;;;;;;;;;;;14.00;99.90;;;;;;5095020;28;19909;-77
2023/12/22 04:46:44;;;;;;;;;;;13.90;99.90;;;;;;5094841;28;20020;-77
2023/12/22 04:49:10;;;;;;;;;;;14.00;99.90;;;;;;5094946;28;19915;-77
2023/12/22 04:51:36;;;;;;;;;;;14.00;99.90;;;;;;5086767;28;19908;-77
2023/12/22 04:54:02;;;;;;;;;;;13.90;99.90;;;;;;5115958;28;20360;-77
2023/12/22 04:56:28;;;;;;;;;;;13.80;99.90;;;;;;5116080;28;19912;-76
2023/12/22 04:58:54;;;;;;;;;;;13.80;99.90;;;;;;5115410;28;19919;-77
2023/12/22 05:01:20;;;;;;;;;;;13.80;99.90;;;;;;5115427;28;19920;-77
2023/12/22 05:03:46;;;;;;;;;;;13.80;99.90;;;;;;5097244;28;19907;-77
2023/12/22 05:06:12;;;;;;;;;;;13.90;99.90;;;;;;5115584;28;19919;-77
2023/12/22 05:08:38;;;;;;;;;;;13.90;99.90;;;;;;5115624;28;19930;-77
2023/12/22 05:11:03;;;;;;;;;;;13.90;99.90;;;;;;5115683;28;19908;-78
2023/12/22 05:13:29;;;;;;;;;;;13.90;99.90;;;;;;5116010;28;19908;-78
2023/12/22 05:15:55;;;;;;;;;;;14.00;99.90;;;;;;5115745;28;20224;-79
2023/12/22 05:18:21;;;;;;;;;;;14.00;99.90;;;;;;5116332;28;19908;-78
2023/12/22 05:20:47;;;;;;;;;;;14.00;99.90;;;;;;5115480;28;19915;-76
2023/12/22 05:23:12;;;;;;;;;;;14.10;99.90;;;;;;5116013;28;19908;-78
2023/12/22 05:25:38;;;;;;;;;;;14.10;99.90;;;;;;5116184;28;19959;-78
2023/12/22 05:28:04;;;;;;;;;;;14.10;99.90;;;;;;5116296;28;19985;-78
2023/12/22 05:30:30;;;;;;;;;;;14.10;99.90;;;;;;5116145;28;19908;-78
2023/12/22 05:32:56;;;;;;;;;;;14.20;99.90;;;;;;5115812;28;19908;-78
2023/12/22 05:35:21;;;;;;;;;;;14.10;99.90;;;;;;5115599;28;20271;-78
2023/12/22 05:37:50;;;;;;;;;;;14.10;99.90;;;;;;5097246;28;19908;-77
2023/12/22 05:40:16;;;;;;;;;;;14.00;99.90;;;;;;5115860;28;19915;-78
2023/12/22 05:42:42;;;;;;;;;;;14.10;99.90;;;;;;5115667;28;19908;-78
2023/12/22 05:45:09;;;;;;;;;;;14.10;99.90;;;;;;5115575;28;20344;-77
2023/12/22 05:47:35;;;;;;;;;;;14.10;99.90;;;;;;5115176;28;20360;-76
2023/12/22 05:50:01;;;;;;;;;;;14.10;99.90;;;;;;5115637;28;19951;-77
2023/12/22 05:52:26;;;;;;;;;;;14.10;99.90;;;;;;5096740;28;19912;-77
2023/12/22 05:54:54;;;;;;;;;;;14.10;99.90;;;;;;5096354;28;19915;-78
2023/12/22 05:57:20;;;;;;;;;;;14.10;99.90;;;;;;5114758;28;19919;-78
2023/12/22 05:59:45;;;;;;;;;;;14.10;99.90;;;;;;5114736;28;19924;-78
2023/12/22 06:02:13;;;;;;;;;;;14.10;99.90;;;;;;5114606;28;19919;-78
2023/12/22 06:04:38;;;;;;;;;;;14.10;99.90;;;;;;5115044;28;19908;-77
2023/12/22 06:07:04;;;;;;;;;;;14.20;99.90;;;;;;5096160;28;19916;-77
2023/12/22 06:09:30;;;;;;;;;;;14.20;99.90;;;;;;5114522;28;20316;-73
2023/12/22 06:11:57;;;;;;;;;;;14.20;99.90;;;;;;5114746;28;19911;-77
2023/12/22 06:14:23;;;;;;;;;;;14.20;99.90;;;;;;5114243;28;19911;-77
2023/12/22 06:16:50;;;;;;;;;;;14.30;99.90;;;;;;5096082;28;20382;-78
2023/12/22 06:19:16;;;;;;;;;;;14.20;99.90;;;;;;5115041;28;20298;-78
2023/12/22 06:21:42;;;;;;;;;;;14.20;99.90;;;;;;5114336;28;20275;-78
2023/12/22 06:24:08;;;;;;;;;;;14.30;99.90;;;;;;5114281;28;19907;-78
2023/12/22 06:26:34;;;;;;;;;;;14.30;99.90;;;;;;5113965;28;20018;-79
2023/12/22 06:29:00;;;;;;;;;;;14.30;99.90;;;;;;5113950;28;20019;-78
2023/12/22 06:31:26;;;;;;;;;;;14.30;99.90;;;;;;5094916;28;19912;-77
2023/12/22 06:33:52;;;;;;;;;;;14.40;99.90;;;;;;5113356;28;19918;-78
2023/12/22 06:36:19;;;;;;;;;;;14.40;99.90;;;;;;5113611;28;19908;-78
2023/12/22 06:38:45;;;;;;;;;;;14.40;99.90;;;;;;5095428;28;20339;-78
2023/12/22 06:41:29;;;;;;;;;;;14.30;99.90;;;;;;5113504;28;19974;-79
2023/12/22 06:44:01;;;;;;;;;;;14.30;99.90;;;;;;5113963;28;19998;-78
2023/12/22 06:46:28;;;;;;;;;;;14.40;99.90;;;;;;5113431;28;20394;-77
2023/12/22 06:48:55;;;;;;;;;;;14.40;99.90;;;;;;5113337;28;20106;-78
2023/12/22 06:51:22;;;;;;;;;;;14.50;99.90;;;;;;5114470;28;19927;-80
2023/12/22 06:53:48;;;;;;;;;;;14.60;99.90;;;;;;5115780;28;19919;-78
2023/12/22 06:56:14;;;;;;;;;;;14.70;99.90;;;;;;5113398;28;20372;-77
2023/12/22 06:58:40;;;;;;;;;;;15.00;99.90;;;;;;5113094;28;19907;-78
2023/12/22 07:01:06;;;;;;;;;;;15.10;99.90;;;;;;5112954;28;20007;-77
2023/12/22 07:03:32;;;;;;;;;;;15.40;99.90;;;;;;5112930;28;20371;-78
2023/12/22 07:05:58;;;;;;;;;;;15.70;99.90;;;;;;5094510;28;19919;-78
2023/12/22 07:08:25;;;;;;;;;;;15.80;99.90;;;;;;5112894;28;19912;-78
2023/12/22 07:10:51;;;;;;;;;;;15.70;99.90;;;;;;5094798;28;20015;-79
2023/12/22 07:13:19;;;;;;;;;;;15.50;99.90;;;;;;5113130;28;19951;-78
2023/12/22 07:15:45;;;;;;;;;;;15.40;99.90;;;;;;5094512;28;19928;-78
2023/12/22 07:18:11;;;;;;;;;;;15.50;99.90;;;;;;5112650;28;19998;-79
2023/12/22 07:20:37;;;;;;;;;;;15.80;99.90;;;;;;5112959;28;19908;-78
2023/12/22 07:23:03;;;;;;;;;;;16.20;99.90;;;;;;5112492;28;19908;-79
2023/12/22 07:25:28;;;;;;;;;;;16.00;99.90;;;;;;5112963;28;19934;-78
2023/12/22 07:27:54;;;;;;;;;;;16.00;99.90;;;;;;5112769;28;19977;-78
2023/12/22 07:30:20;;;;;;;;;;;16.10;99.90;;;;;;5112801;28;19915;-78
2023/12/22 07:32:48;;;;;;;;;;;15.90;99.90;;;;;;5112689;28;19908;-78
2023/12/22 07:35:14;;;;;;;;;;;16.00;99.90;;;;;;5112563;28;19957;-78
2023/12/22 07:37:40;;;;;;;;;;;16.00;99.90;;;;;;5112622;28;20004;-77
2023/12/22 07:40:07;;;;;;;;;;;16.20;99.90;;;;;;5093923;28;20378;-78
2023/12/22 07:42:32;;;;;;;;;;;16.40;99.90;;;;;;5112739;28;19916;-78
2023/12/22 07:44:58;;;;;;;;;;;16.40;99.90;;;;;;5116235;28;19941;-78
2023/12/22 07:47:24;;;;;;;;;;;16.10;99.90;;;;;;5117070;28;19980;-77
2023/12/22 07:49:51;;;;;;;;;;;16.00;99.90;;;;;;5116412;28;19969;-78
2023/12/22 07:52:18;;;;;;;;;;;15.90;99.90;;;;;;5116469;28;19908;-77
2023/12/22 07:54:44;;;;;;;;;;;15.90;99.90;;;;;;5116460;28;20309;-78
2023/12/22 07:57:10;;;;;;;;;;;15.80;99.90;;;;;;5116488;28;19995;-78
2023/12/22 07:59:37;;;;;;;;;;;15.80;99.90;;;;;;5116342;28;19916;-77
2023/12/22 08:02:02;;;;;;;;;;;15.70;99.90;;;;;;5098054;28;19961;-78
2023/12/22 08:04:28;;;;;;;;;;;15.70;99.90;;;;;;5116315;28;19908;-79
2023/12/22 08:06:54;;;;;;;;;;;15.70;99.90;;;;;;5116375;28;20023;-79
2023/12/22 08:09:22;;;;;;;;;;;15.70;99.90;;;;;;5116298;28;19987;-78
2023/12/22 08:11:52;;;;;;;;;;;15.60;99.90;;;;;;5097790;28;19908;-78
2023/12/22 08:14:18;;;;;;;;;;;15.60;99.90;;;;;;5097624;28;19965;-79
2023/12/22 08:16:44;;;;;;;;;;;15.60;99.90;;;;;;5116251;28;19908;-79
2023/12/22 08:19:10;;;;;;;;;;;15.60;99.90;;;;;;5097598;28;19914;-79
2023/12/22 08:21:36;;;;;;;;;;;15.60;99.90;;;;;;5116234;28;20329;-79
2023/12/22 08:24:02;;;;;;;;;;;15.50;99.90;;;;;;5115922;28;19907;-77
2023/12/22 08:26:28;;;;;;;;;;;15.50;99.90;;;;;;5116492;28;19915;-78
2023/12/22 08:28:54;;;;;;;;;;;15.50;99.90;;;;;;5097517;28;19908;-78
2023/12/22 08:31:19;;;;;;;;;;;15.50;99.90;;;;;;5115698;28;20385;-78
2023/12/22 08:33:45;;;;;;;;;;;15.60;99.90;;;;;;5115501;28;19912;-78
2023/12/22 08:36:11;;;;;;;;;;;15.60;99.90;;;;;;5115583;28;19914;-78
2023/12/22 08:38:40;;;;;;;;;;;15.50;99.90;;;;;;5115491;28;19907;-76
2023/12/22 08:41:10;;;;;;;;;;;15.50;99.90;;;;;;5096910;28;19923;-76
2023/12/22 08:43:38;;;;;;;;;;;15.50;99.90;;;;;;5115574;28;19908;-76
2023/12/22 08:46:04;;;;;;;;;;;15.60;99.90;;;;;;5096800;28;19916;-78
2023/12/22 08:48:30;;;;;;;;;;;15.90;99.90;;;;;;5114997;28;20214;-78
2023/12/22 08:50:56;;;;;;;;;;;15.90;99.90;;;;;;5114663;28;19919;-78
2023/12/22 08:53:21;;;;;;;;;;;16.00;99.90;;;;;;5115186;28;19908;-77
2023/12/22 08:55:47;;;;;;;;;;;16.20;99.90;;;;;;5113312;28;20068;-77
2023/12/22 08:58:13;;;;;;;;;;;16.30;99.90;;;;;;5095681;28;19908;-77
2023/12/22 09:00:39;;;;;;;;;;;16.50;99.90;;;;;;5114183;28;20015;-78
2023/12/22 09:03:08;;;;;;;;;;;16.70;99.90;;;;;;5114339;28;20007;-78
2023/12/22 09:05:33;;;;;;;;;;;16.90;99.90;;;;;;5114404;28;20267;-78
2023/12/22 09:07:59;;;;;;;;;;;17.00;99.90;;;;;;5114664;28;19912;-77
2023/12/22 09:10:25;;;;;;;;;;;17.10;99.90;;;;;;5095523;28;19908;-77
2023/12/22 09:12:51;;;;;;;;;;;17.20;99.90;;;;;;5095852;28;19919;-77
2023/12/22 09:15:17;;;;;;;;;;;17.20;99.90;;;;;;5095807;28;19908;-79
2023/12/22 09:17:43;;;;;;;;;;;17.00;99.90;;;;;;5114734;28;19961;-78
2023/12/22 09:20:08;;;;;;;;;;;16.90;99.90;;;;;;5115338;28;19908;-77
2023/12/22 09:22:35;;;;;;;;;;;16.90;99.90;;;;;;5114848;28;20015;-78
2023/12/22 09:25:01;;;;;;;;;;;16.80;99.90;;;;;;5114711;28;19918;-77
2023/12/22 09:27:30;;;;;;;;;;;16.60;99.90;;;;;;5096666;28;19916;-79
2023/12/22 09:29:55;;;;;;;;;;;16.40;99.90;;;;;;5079933;28;19916;-76
2023/12/22 09:32:21;;;;;;;;;;;16.30;99.90;;;;;;5114459;28;19908;-78
2023/12/22 09:34:47;;;;;;;;;;;16.30;99.90;;;;;;5114941;28;20306;-78
2023/12/22 09:37:14;;;;;;;;;;;16.50;99.90;;;;;;5114411;28;19907;-78
2023/12/22 09:39:40;;;;;;;;;;;16.60;99.90;;;;;;5114745;28;19968;-74
2023/12/22 09:42:07;;;;;;;;;;;16.70;99.90;;;;;;5114096;28;20280;-79
2023/12/22 09:44:35;;;;;;;;;;;16.70;99.90;;;;;;5095136;28;19931;-78
2023/12/22 09:47:04;;;;;;;;;;;16.80;99.90;;;;;;5095110;28;20384;-79
2023/12/22 09:49:29;;;;;;;;;;;16.80;99.90;;;;;;5113970;28;20367;-78
2023/12/22 09:51:57;;;;;;;;;;;16.80;99.90;;;;;;5113641;28;19951;-79
2023/12/22 09:54:22;;;;;;;;;;;16.80;99.90;;;;;;5114081;28;19915;-78
2023/12/22 09:56:50;;;;;;;;;;;16.70;99.90;;;;;;5114668;28;19912;-78
2023/12/22 09:59:17;;;;;;;;;;;16.70;99.90;;;;;;5114314;28;20011;-78
2023/12/22 10:01:46;;;;;;;;;;;16.70;99.90;;;;;;5113203;28;20074;-79
2023/12/22 10:04:15;;;;;;;;;;;16.60;99.90;;;;;;5094600;28;19908;-77
2023/12/22 10:06:41;;;;;;;;;;;16.50;99.90;;;;;;5113840;28;19916;-78
2023/12/22 10:09:08;;;;;;;;;;;16.30;99.90;;;;;;5113296;28;19915;-78
2023/12/22 10:11:38;;;;;;;;;;;16.50;99.90;;;;;;5113937;28;19908;-77
2023/12/22 10:14:05;;;;;;;;;;;16.50;99.90;;;;;;5113484;28;20279;-77
2023/12/22 10:16:31;;;;;;;;;;;16.60;99.90;;;;;;5113761;28;20248;-78
2023/12/22 10:18:57;;;;;;;;;;;16.60;99.90;;;;;;5113717;28;19968;-78
2023/12/22 10:21:23;;;;;;;;;;;16.70;99.90;;;;;;5114412;28;19939;-78
2023/12/22 10:23:48;;;;;;;;;;;16.60;99.90;;;;;;5113497;28;19919;-78
2023/12/22 10:26:16;;;;;;;;;;;16.50;99.90;;;;;;5113728;28;19920;-78
2023/12/22 10:28:43;;;;;;;;;;;16.60;99.90;;;;;;5113791;28;19953;-79
2023/12/22 10:31:09;;;;;;;;;;;16.70;99.90;;;;;;5113277;28;19926;-77
2023/12/22 10:33:34;;;;;;;;;;;16.50;99.90;;;;;;5101630;28;19908;-77
2023/12/22 10:36:00;;;;;;;;;;;16.60;99.90;;;;;;5092761;28;19919;-78
2023/12/22 10:38:32;;;;;;;;;;;16.60;99.90;;;;;;5093212;28;19912;-78
2023/12/22 10:40:57;;;;;;;;;;;16.80;99.90;;;;;;5092869;28;19961;-79
2023/12/22 10:43:24;;;;;;;;;;;16.80;99.90;;;;;;5092525;28;19912;-79
2023/12/22 10:45:51;;;;;;;;;;;17.10;99.90;;;;;;5074601;28;20271;-78
2023/12/22 10:48:17;;;;;;;;;;;17.30;99.90;;;;;;5074173;28;19908;-78
2023/12/22 10:50:43;;;;;;;;;;;17.60;99.90;;;;;;5095257;28;20390;-79
2023/12/22 10:53:12;;;;;;;;;;;17.70;99.90;;;;;;5113197;28;19918;-78
2023/12/22 10:55:39;;;;;;;;;;;17.80;99.90;;;;;;5112455;28;19907;-77
2023/12/22 10:58:05;;;;;;;;;;;17.70;99.90;;;;;;5112664;28;19915;-77
2023/12/22 11:00:32;;;;;;;;;;;17.70;99.90;;;;;;5113064;28;19942;-78
2023/12/22 11:03:00;;;;;;;;;;;17.80;99.90;;;;;;5112827;28;19908;-77
2023/12/22 11:05:28;;;;;;;;;;;17.80;99.90;;;;;;5112732;28;19965;-78
2023/12/22 11:07:55;;;;;;;;;;;17.80;99.90;;;;;;5094628;28;19918;-78
2023/12/22 11:10:21;;;;;;;;;;;17.70;99.90;;;;;;5112992;28;19918;-78
2023/12/22 11:12:48;;;;;;;;;;;17.80;99.90;;;;;;5094519;28;19998;-78
2023/12/22 11:15:15;;;;;;;;;;;17.90;99.90;;;;;;5077705;28;19915;-79
2023/12/22 11:17:42;;;;;;;;;;;17.70;99.90;;;;;;5112813;28;20299;-78
2023/12/22 11:20:14;;;;;;;;;;;17.60;99.90;;;;;;5112894;28;20360;-78
2023/12/22 11:22:41;;;;;;;;;;;17.30;99.90;;;;;;5114296;28;19919;-77
2023/12/22 11:25:09;;;;;;;;;;;17.10;99.90;;;;;;5094805;28;19950;-79
2023/12/22 11:27:36;;;;;;;;;;;17.20;99.90;;;;;;5112849;28;20016;-78
2023/12/22 11:30:03;;;;;;;;;;;17.30;99.90;;;;;;5112539;28;19953;-78
2023/12/22 11:32:29;;;;;;;;;;;17.20;99.90;;;;;;5112079;28;19949;-79
2023/12/22 11:34:56;;;;;;;;;;;17.00;99.90;;;;;;5111971;28;19961;-78
2023/12/22 11:37:22;;;;;;;;;;;17.00;99.90;;;;;;5112344;28;20371;-78
2023/12/22 11:39:48;;;;;;;;;;;17.10;99.90;;;;;;5112248;28;19908;-78
2023/12/22 11:42:23;;;;;;;;;;;17.20;99.90;;;;;;5094108;28;20003;-76
2023/12/22 11:44:49;;;;;;;;;;;17.30;99.90;;;;;;5112294;28;19972;-78
2023/12/22 11:47:15;;;;;;;;;;;17.30;99.90;;;;;;5112550;28;19927;-79
2023/12/22 11:49:41;;;;;;;;;;;17.30;99.90;;;;;;5111978;28;20283;-78
2023/12/22 11:52:13;;;;;;;;;;;17.30;99.90;;;;;;5111565;28;19916;-79
2023/12/22 11:54:46;;;;;;;;;;;17.50;99.90;;;;;;5111678;28;20363;-78
2023/12/22 11:57:28;;;;;;;;;;;17.60;99.90;;;;;;5112549;28;19914;-79
2023/12/22 11:59:57;;;;;;;;;;;17.60;99.90;;;;;;5111719;28;19981;-78
2023/12/22 12:02:23;;;;;;;;;;;17.60;99.90;;;;;;5112359;28;19955;-78
2023/12/22 12:04:50;;;;;;;;;;;17.70;99.90;;;;;;5112111;28;19935;-78
2023/12/22 12:07:34;;;;;;;;;;;17.90;99.90;;;;;;5112234;28;19920;-77
2023/12/22 12:10:00;;;;;;;;;;;17.90;99.90;;;;;;5111603;28;19915;-77
2023/12/22 12:12:26;;;;;;;;;;;18.00;99.90;;;;;;5111818;28;19907;-78
2023/12/22 12:14:55;;;;;;;;;;;18.10;99.90;;;;;;5112029;28;20335;-78
2023/12/22 12:17:21;;;;;;;;;;;18.10;99.90;;;;;;5112242;28;19908;-78
2023/12/22 12:19:47;;;;;;;;;;;18.20;99.90;;;;;;5112533;28;20361;-79
2023/12/22 12:22:14;;;;;;;;;;;18.30;99.90;;;;;;5112404;28;19908;-77
2023/12/22 12:24:40;;;;;;;;;;;17.90;99.90;;;;;;5094332;28;19947;-78
2023/12/22 12:27:06;;;;;;;;;;;18.10;99.90;;;;;;5112785;28;19920;-76
2023/12/22 12:29:33;;;;;;;;;;;18.10;99.90;;;;;;5093915;28;20386;-77
2023/12/22 12:32:05;;;;;;;;;;;18.20;99.90;;;;;;5115591;28;19958;-78
2023/12/22 12:34:31;;;;;;;;;;;18.20;99.90;;;;;;5115676;28;19912;-78
2023/12/22 12:36:58;;;;;;;;;;;18.10;99.90;;;;;;5115732;28;19957;-77
2023/12/22 12:39:28;;;;;;;;;;;18.00;99.90;;;;;;5115736;28;19908;-77
2023/12/22 12:41:56;;;;;;;;;;;17.90;99.90;;;;;;5115978;28;19924;-78
2023/12/22 12:44:24;;;;;;;;;;;17.80;99.90;;;;;;5116005;28;19915;-77
2023/12/22 12:46:49;;;;;;;;;;;17.60;99.90;;;;;;5117828;28;19985;-77
2023/12/22 12:49:16;;;;;;;;;;;17.70;99.90;;;;;;5116631;28;19912;-76
2023/12/22 12:51:46;;;;;;;;;;;17.90;99.90;;;;;;5115990;28;19930;-77
2023/12/22 12:54:13;;;;;;;;;;;17.80;99.90;;;;;;5116096;28;19930;-76
2023/12/22 12:56:40;;;;;;;;;;;17.80;99.90;;;;;;5115887;28;19908;-78
2023/12/22 12:59:09;;;;;;;;;;;17.90;99.90;;;;;;5115992;28;19918;-78
2023/12/22 13:01:39;;;;;;;;;;;17.60;99.90;;;;;;5115851;28;20007;-78
2023/12/22 13:04:05;;;;;;;;;;;17.50;99.90;;;;;;5097451;28;20041;-78
2023/12/22 13:06:31;;;;;;;;;;;17.60;99.90;;;;;;5116023;28;19929;-78
2023/12/22 13:08:56;;;;;;;;;;;17.70;99.90;;;;;;5115416;28;20249;-78
2023/12/22 13:11:23;;;;;;;;;;;17.80;99.90;;;;;;5115631;28;19950;-78
2023/12/22 13:13:49;;;;;;;;;;;17.70;99.90;;;;;;5116197;28;19908;-77
2023/12/22 13:16:26;;;;;;;;;;;17.70;99.90;;;;;;5097270;28;19912;-78
2023/12/22 13:18:52;;;;;;;;;;;17.90;99.90;;;;;;5116559;28;20019;-78
2023/12/22 13:21:18;;;;;;;;;;;17.90;99.90;;;;;;5115795;28;19907;-78
2023/12/22 13:23:44;;;;;;;;;;;17.80;99.90;;;;;;5115809;28;19908;-78
2023/12/22 13:26:19;;;;;;;;;;;17.80;99.90;;;;;;5115611;28;19943;-78
2023/12/22 13:28:45;;;;;;;;;;;18.00;99.90;;;;;;5115676;28;19939;-78
2023/12/22 13:31:13;;;;;;;;;;;17.90;99.90;;;;;;5115464;28;20276;-78
2023/12/22 13:33:39;;;;;;;;;;;17.60;99.90;;;;;;5115409;28;19908;-78
2023/12/22 13:36:07;;;;;;;;;;;17.60;99.90;;;;;;5115352;28;19999;-79
2023/12/22 13:38:33;;;;;;;;;;;17.60;99.90;;;;;;5096933;28;19908;-78
2023/12/22 13:41:03;;;;;;;;;;;17.90;99.90;;;;;;5115376;28;20326;-79
2023/12/22 13:43:29;;;;;;;;;;;18.00;99.90;;;;;;5115295;28;19908;-78
2023/12/22 13:45:55;;;;;;;;;;;18.20;99.90;;;;;;5115555;28;19919;-79
2023/12/22 13:48:21;;;;;;;;;;;18.40;99.90;;;;;;5115240;28;19908;-78
2023/12/22 13:50:56;;;;;;;;;;;18.40;99.90;;;;;;5114461;28;20010;-77
2023/12/22 13:53:22;;;;;;;;;;;18.40;99.90;;;;;;5114482;28;19908;-78
2023/12/22 13:55:58;;;;;;;;;;;18.30;99.90;;;;;;5114295;28;19908;-78
2023/12/22 13:58:24;;;;;;;;;;;18.30;99.90;;;;;;5114388;28;20348;-77
2023/12/22 14:00:50;;;;;;;;;;;18.20;99.90;;;;;;5112952;28;19920;-78
2023/12/22 14:03:22;;;;;;;;;;;18.00;99.90;;;;;;5114316;28;20006;-78
2023/12/22 14:05:48;;;;;;;;;;;18.00;99.90;;;;;;5114095;28;20358;-77
2023/12/22 14:08:15;;;;;;;;;;;18.10;99.90;;;;;;5095769;28;19935;-77
2023/12/22 14:10:47;;;;;;;;;;;18.00;99.90;;;;;;5114835;28;20010;-77
2023/12/22 14:13:14;;;;;;;;;;;18.10;99.90;;;;;;5113524;28;19908;-77